createdAt,value
2022-08-26T00:00:31.183Z,999.39
2022-08-26T00:01:31.175Z,999.40
2022-08-26T00:02:31.197Z,999.36
2022-08-26T00:03:31.135Z,999.35
2022-08-26T00:04:31.115Z,999.34
2022-08-26T00:05:31.128Z,999.35
2022-08-26T00:06:31.093Z,999.29
2022-08-26T00:07:31.106Z,999.30
2022-08-26T00:08:31.066Z,999.27
2022-08-26T00:09:31.055Z,999.27
2022-08-26T00:10:31.043Z,999.28
2022-08-26T00:11:31.037Z,999.24
2022-08-26T00:12:36.164Z,999.24
2022-08-26T00:13:32.004Z,999.26
2022-08-26T00:14:31.609Z,999.29
2022-08-26T00:15:30.978Z,999.29
2022-08-26T00:16:31.022Z,999.33
2022-08-26T00:17:30.965Z,999.30
2022-08-26T00:18:30.956Z,999.30
2022-08-26T00:19:31.934Z,999.30
2022-08-26T00:20:30.909Z,999.28
2022-08-26T00:21:30.901Z,999.27
2022-08-26T00:22:30.886Z,999.31
2022-08-26T00:23:30.867Z,999.28
2022-08-26T00:24:30.854Z,999.27
2022-08-26T00:25:30.846Z,999.28
2022-08-26T00:26:30.841Z,999.27
2022-08-26T00:27:30.825Z,999.29
2022-08-26T00:28:30.808Z,999.20
2022-08-26T00:29:31.939Z,999.20
2022-08-26T00:30:31.775Z,999.19
2022-08-26T00:31:31.210Z,999.22
2022-08-26T00:32:30.762Z,999.15
2022-08-26T00:33:30.736Z,999.14
2022-08-26T00:34:30.718Z,999.15
2022-08-26T00:35:30.710Z,999.09
2022-08-26T00:36:30.687Z,999.14
2022-08-26T00:37:30.694Z,999.18
2022-08-26T00:38:30.665Z,999.18
2022-08-26T00:39:30.655Z,999.15
2022-08-26T00:40:30.718Z,999.19
2022-08-26T00:41:30.645Z,999.17
2022-08-26T00:42:30.624Z,999.17
2022-08-26T00:43:30.610Z,999.16
2022-08-26T00:44:31.590Z,999.20
2022-08-26T00:45:30.622Z,999.21
2022-08-26T00:46:30.556Z,999.21
2022-08-26T00:47:31.035Z,999.29
2022-08-26T00:48:31.777Z,999.29
2022-08-26T00:49:30.518Z,999.30
2022-08-26T00:50:30.518Z,999.29
2022-08-26T00:51:30.504Z,999.27
2022-08-26T00:52:30.487Z,999.27
2022-08-26T00:53:30.476Z,999.27
2022-08-26T00:54:30.450Z,999.23
2022-08-26T00:55:38.024Z,999.24
2022-08-26T00:56:31.443Z,999.22
2022-08-26T00:57:30.428Z,999.20
2022-08-26T00:58:30.403Z,999.12
2022-08-26T00:59:33.036Z,999.15
2022-08-26T01:00:30.368Z,999.18
2022-08-26T01:01:30.387Z,999.16
2022-08-26T01:02:30.375Z,999.19
2022-08-26T01:03:30.329Z,999.14
2022-08-26T01:04:30.333Z,999.17
2022-08-26T01:05:30.309Z,999.15
2022-08-26T01:06:30.297Z,999.14
2022-08-26T01:07:31.175Z,999.14
2022-08-26T01:08:30.272Z,999.15
2022-08-26T01:09:30.258Z,999.16
2022-08-26T01:10:30.257Z,999.17
2022-08-26T01:11:30.258Z,999.19
2022-08-26T01:12:30.212Z,999.19
2022-08-26T01:13:30.216Z,999.15
2022-08-26T01:14:30.190Z,999.15
2022-08-26T01:15:30.179Z,999.14
2022-08-26T01:16:30.258Z,999.13
2022-08-26T01:17:30.149Z,999.11
2022-08-26T01:18:30.132Z,999.14
2022-08-26T01:19:30.120Z,999.15
2022-08-26T01:20:30.110Z,999.14
2022-08-26T01:21:30.177Z,999.14
2022-08-26T01:22:30.079Z,999.18
2022-08-26T01:23:30.067Z,999.19
2022-08-26T01:24:30.051Z,999.15
2022-08-26T01:25:30.051Z,999.16
2022-08-26T01:26:30.055Z,999.15
2022-08-26T01:27:30.018Z,999.16
2022-08-26T01:28:30.016Z,999.17
2022-08-26T01:29:30.003Z,999.14
2022-08-26T01:30:29.994Z,999.17
2022-08-26T01:31:30.082Z,999.18
2022-08-26T01:32:29.951Z,999.18
2022-08-26T01:33:29.946Z,999.20
2022-08-26T01:34:30.924Z,999.25
2022-08-26T01:35:29.912Z,999.17
2022-08-26T01:36:29.911Z,999.17
2022-08-26T01:37:29.892Z,999.14
2022-08-26T01:38:31.640Z,999.17
2022-08-26T01:39:29.862Z,999.18
2022-08-26T01:40:29.866Z,999.17
2022-08-26T01:41:29.839Z,999.20
2022-08-26T01:42:29.811Z,999.17
2022-08-26T01:43:29.814Z,999.17
2022-08-26T01:44:29.802Z,999.14
2022-08-26T01:45:29.804Z,999.15
2022-08-26T01:46:29.759Z,999.11
2022-08-26T01:47:30.052Z,999.15
2022-08-26T01:48:29.751Z,999.12
2022-08-26T01:49:29.723Z,999.15
2022-08-26T01:50:30.228Z,999.15
2022-08-26T01:51:29.701Z,999.20
2022-08-26T01:52:29.697Z,999.13
2022-08-26T01:53:29.670Z,999.14
2022-08-26T01:54:29.657Z,999.15
2022-08-26T01:55:33.167Z,999.17
2022-08-26T01:56:33.074Z,999.11
2022-08-26T01:57:29.624Z,999.14
2022-08-26T01:58:29.600Z,999.13
2022-08-26T01:59:29.601Z,999.16
2022-08-26T02:00:29.595Z,999.13
2022-08-26T02:01:29.560Z,999.13
2022-08-26T02:02:29.558Z,999.15
2022-08-26T02:03:29.577Z,999.12
2022-08-26T02:04:29.578Z,999.16
2022-08-26T02:05:29.531Z,999.18
2022-08-26T02:06:29.495Z,999.18
2022-08-26T02:07:29.488Z,999.20
2022-08-26T02:08:29.498Z,999.18
2022-08-26T02:09:29.460Z,999.20
2022-08-26T02:10:29.459Z,999.17
2022-08-26T02:11:29.443Z,999.18
2022-08-26T02:12:29.412Z,999.17
2022-08-26T02:13:29.413Z,999.17
2022-08-26T02:14:29.385Z,999.15
2022-08-26T02:15:29.407Z,999.15
2022-08-26T02:16:29.400Z,999.13
2022-08-26T02:17:29.360Z,999.14
2022-08-26T02:18:29.345Z,999.17
2022-08-26T02:19:29.334Z,999.16
2022-08-26T02:20:29.325Z,999.13
2022-08-26T02:21:29.298Z,999.12
2022-08-26T02:22:29.310Z,999.10
2022-08-26T02:23:29.274Z,999.10
2022-08-26T02:24:29.267Z,999.05
2022-08-26T02:25:29.252Z,999.09
2022-08-26T02:26:29.232Z,999.07
2022-08-26T02:27:30.326Z,999.02
2022-08-26T02:28:29.210Z,999.05
2022-08-26T02:29:29.191Z,999.03
2022-08-26T02:30:29.190Z,999.08
2022-08-26T02:31:29.210Z,999.09
2022-08-26T02:32:29.165Z,999.07
2022-08-26T02:33:29.131Z,999.09
2022-08-26T02:34:31.314Z,999.09
2022-08-26T02:35:29.126Z,999.08
2022-08-26T02:36:29.101Z,999.05
2022-08-26T02:37:29.095Z,999.06
2022-08-26T02:38:29.074Z,999.03
2022-08-26T02:39:29.066Z,999.00
2022-08-26T02:40:29.086Z,998.99
2022-08-26T02:41:29.031Z,999.02
2022-08-26T02:42:29.023Z,998.99
2022-08-26T02:43:32.886Z,999.03
2022-08-26T02:44:29.013Z,999.00
2022-08-26T02:45:28.984Z,999.05
2022-08-26T02:46:30.094Z,999.05
2022-08-26T02:47:29.239Z,999.11
2022-08-26T02:48:28.941Z,999.08
2022-08-26T02:49:28.941Z,999.03
2022-08-26T02:50:28.918Z,999.06
2022-08-26T02:51:28.894Z,999.02
2022-08-26T02:52:28.887Z,999.04
2022-08-26T02:53:28.871Z,999.00
2022-08-26T02:54:28.873Z,999.03
2022-08-26T02:55:28.846Z,999.05
2022-08-26T02:56:28.849Z,999.03
2022-08-26T02:57:28.842Z,999.02
2022-08-26T02:58:28.812Z,999.00
2022-08-26T02:59:28.812Z,999.00
2022-08-26T03:00:28.880Z,998.99
2022-08-26T03:01:28.793Z,998.96
2022-08-26T03:02:28.770Z,999.04
2022-08-26T03:03:28.741Z,999.01
2022-08-26T03:04:28.743Z,999.05
2022-08-26T03:05:28.712Z,999.01
2022-08-26T03:06:28.703Z,999.05
2022-08-26T03:07:28.684Z,999.02
2022-08-26T03:08:28.675Z,998.99
2022-08-26T03:09:28.671Z,999.01
2022-08-26T03:10:28.652Z,998.97
2022-08-26T03:11:32.970Z,998.97
2022-08-26T03:12:28.623Z,998.93
2022-08-26T03:13:28.603Z,998.93
2022-08-26T03:14:28.604Z,998.94
2022-08-26T03:15:28.584Z,998.92
2022-08-26T03:16:32.347Z,998.91
2022-08-26T03:17:28.555Z,998.90
2022-08-26T03:18:28.546Z,998.91
2022-08-26T03:19:28.533Z,998.92
2022-08-26T03:20:28.521Z,998.90
2022-08-26T03:21:28.503Z,998.86
2022-08-26T03:22:28.495Z,998.82
2022-08-26T03:23:28.475Z,998.81
2022-08-26T03:24:28.485Z,998.81
2022-08-26T03:25:28.445Z,998.76
2022-08-26T03:26:28.448Z,998.73
2022-08-26T03:27:28.422Z,998.75
2022-08-26T03:28:28.419Z,998.70
2022-08-26T03:29:28.416Z,998.68
2022-08-26T03:30:28.384Z,998.68
2022-08-26T03:31:28.392Z,998.69
2022-08-26T03:32:28.355Z,998.70
2022-08-26T03:33:28.345Z,998.68
2022-08-26T03:34:28.349Z,998.65
2022-08-26T03:35:28.314Z,998.67
2022-08-26T03:36:28.304Z,998.65
2022-08-26T03:37:28.284Z,998.67
2022-08-26T03:38:28.274Z,998.66
2022-08-26T03:39:28.275Z,998.66
2022-08-26T03:40:29.014Z,998.71
2022-08-26T03:41:28.246Z,998.72
2022-08-26T03:42:28.224Z,998.73
2022-08-26T03:43:28.206Z,998.74
2022-08-26T03:44:28.210Z,998.70
2022-08-26T03:45:28.186Z,998.75
2022-08-26T03:46:28.232Z,998.71
2022-08-26T03:47:28.156Z,998.73
2022-08-26T03:48:28.149Z,998.81
2022-08-26T03:49:28.918Z,998.77
2022-08-26T03:50:28.123Z,998.79
2022-08-26T03:51:28.107Z,998.82
2022-08-26T03:52:28.101Z,998.83
2022-08-26T03:53:28.080Z,998.84
2022-08-26T03:54:28.075Z,998.87
2022-08-26T03:55:28.043Z,998.85
2022-08-26T03:56:28.045Z,998.85
2022-08-26T03:57:28.034Z,998.89
2022-08-26T03:58:28.034Z,998.87
2022-08-26T03:59:28.006Z,998.83
2022-08-26T04:00:27.984Z,998.83
2022-08-26T04:01:28.031Z,998.81
2022-08-26T04:02:27.990Z,998.84
2022-08-26T04:03:27.976Z,998.85
2022-08-26T04:04:27.952Z,998.81
2022-08-26T04:05:27.917Z,998.83
2022-08-26T04:06:27.908Z,998.83
2022-08-26T04:07:27.890Z,998.80
2022-08-26T04:08:28.038Z,998.84
2022-08-26T04:09:27.873Z,998.82
2022-08-26T04:10:29.316Z,998.82
2022-08-26T04:11:27.833Z,998.80
2022-08-26T04:12:27.824Z,998.79
2022-08-26T04:13:27.805Z,998.76
2022-08-26T04:14:27.815Z,998.78
2022-08-26T04:15:27.787Z,998.85
2022-08-26T04:16:27.818Z,998.81
2022-08-26T04:17:27.754Z,998.81
2022-08-26T04:18:31.382Z,998.85
2022-08-26T04:19:28.754Z,998.82
2022-08-26T04:20:27.730Z,998.85
2022-08-26T04:21:27.704Z,998.83
2022-08-26T04:22:27.694Z,998.86
2022-08-26T04:23:27.680Z,998.85
2022-08-26T04:24:27.899Z,998.87
2022-08-26T04:25:27.647Z,998.85
2022-08-26T04:26:27.643Z,998.84
2022-08-26T04:27:27.626Z,998.88
2022-08-26T04:28:27.613Z,998.84
2022-08-26T04:29:27.606Z,998.83
2022-08-26T04:30:27.601Z,998.81
2022-08-26T04:31:27.600Z,998.85
2022-08-26T04:32:27.555Z,998.82
2022-08-26T04:33:32.271Z,998.80
2022-08-26T04:34:28.951Z,998.80
2022-08-26T04:35:27.524Z,998.80
2022-08-26T04:36:27.518Z,998.79
2022-08-26T04:37:27.494Z,998.81
2022-08-26T04:38:27.494Z,998.82
2022-08-26T04:39:27.787Z,998.79
2022-08-26T04:40:27.625Z,998.81
2022-08-26T04:41:27.437Z,998.78
2022-08-26T04:42:27.425Z,998.78
2022-08-26T04:43:27.427Z,998.80
2022-08-26T04:44:27.396Z,998.80
2022-08-26T04:45:27.388Z,998.77
2022-08-26T04:46:27.443Z,998.79
2022-08-26T04:47:32.124Z,998.84
2022-08-26T04:48:28.365Z,998.77
2022-08-26T04:49:27.511Z,998.82
2022-08-26T04:50:27.323Z,998.84
2022-08-26T04:51:27.349Z,998.80
2022-08-26T04:52:27.307Z,998.84
2022-08-26T04:53:27.285Z,998.86
2022-08-26T04:54:27.269Z,998.85
2022-08-26T04:55:38.680Z,998.84
2022-08-26T04:56:28.235Z,998.83
2022-08-26T04:57:27.216Z,998.83
2022-08-26T04:58:27.235Z,998.87
2022-08-26T04:59:27.195Z,998.87
2022-08-26T05:00:27.191Z,998.86
2022-08-26T05:01:27.198Z,998.91
2022-08-26T05:02:27.158Z,998.92
2022-08-26T05:03:27.184Z,998.92
2022-08-26T05:04:27.163Z,998.96
2022-08-26T05:05:27.118Z,998.95
2022-08-26T05:06:27.106Z,998.97
2022-08-26T05:07:27.095Z,998.95
2022-08-26T05:08:27.087Z,998.98
2022-08-26T05:09:27.064Z,998.92
2022-08-26T05:10:27.055Z,998.96
2022-08-26T05:11:27.058Z,998.95
2022-08-26T05:12:27.035Z,998.96
2022-08-26T05:13:27.026Z,998.95
2022-08-26T05:14:27.009Z,998.94
2022-08-26T05:15:26.987Z,998.93
2022-08-26T05:16:27.012Z,998.97
2022-08-26T05:17:26.957Z,999.03
2022-08-26T05:18:26.968Z,998.99
2022-08-26T05:19:27.994Z,998.88
2022-08-26T05:20:26.925Z,998.94
2022-08-26T05:21:27.064Z,998.95
2022-08-26T05:22:26.899Z,998.93
2022-08-26T05:23:26.897Z,998.96
2022-08-26T05:24:26.870Z,998.97
2022-08-26T05:25:27.457Z,999.00
2022-08-26T05:26:26.857Z,998.94
2022-08-26T05:27:26.828Z,999.02
2022-08-26T05:28:26.832Z,999.00
2022-08-26T05:29:26.796Z,999.02
2022-08-26T05:30:26.788Z,999.05
2022-08-26T05:31:26.851Z,999.03
2022-08-26T05:32:26.865Z,999.03
2022-08-26T05:33:27.902Z,998.97
2022-08-26T05:34:30.095Z,999.01
2022-08-26T05:35:26.727Z,998.99
2022-08-26T05:36:26.969Z,999.01
2022-08-26T05:37:26.696Z,998.98
2022-08-26T05:38:30.330Z,998.94
2022-08-26T05:39:26.658Z,998.94
2022-08-26T05:40:26.732Z,998.93
2022-08-26T05:41:26.653Z,998.88
2022-08-26T05:42:27.641Z,998.89
2022-08-26T05:43:26.629Z,998.97
2022-08-26T05:44:26.609Z,998.90
2022-08-26T05:45:26.580Z,998.89
2022-08-26T05:46:26.598Z,998.92
2022-08-26T05:47:26.566Z,998.96
2022-08-26T05:48:26.557Z,998.88
2022-08-26T05:49:26.668Z,998.94
2022-08-26T05:50:26.521Z,998.95
2022-08-26T05:51:26.511Z,998.92
2022-08-26T05:52:26.498Z,998.91
2022-08-26T05:53:26.489Z,998.94
2022-08-26T05:54:26.481Z,998.90
2022-08-26T05:55:26.450Z,998.84
2022-08-26T05:56:26.456Z,998.83
2022-08-26T05:57:26.431Z,998.81
2022-08-26T05:58:26.747Z,998.79
2022-08-26T05:59:26.401Z,998.77
2022-08-26T06:00:26.390Z,998.77
2022-08-26T06:01:26.485Z,998.79
2022-08-26T06:02:26.428Z,998.73
2022-08-26T06:03:26.365Z,998.75
2022-08-26T06:04:27.849Z,998.74
2022-08-26T06:05:26.322Z,998.77
2022-08-26T06:06:29.152Z,998.74
2022-08-26T06:07:26.300Z,998.75
2022-08-26T06:08:26.303Z,998.74
2022-08-26T06:09:26.260Z,998.75
2022-08-26T06:10:32.654Z,998.78
2022-08-26T06:11:27.240Z,998.73
2022-08-26T06:12:26.244Z,998.80
2022-08-26T06:13:26.242Z,998.77
2022-08-26T06:14:26.209Z,998.83
2022-08-26T06:15:26.191Z,998.85
2022-08-26T06:16:26.245Z,998.79
2022-08-26T06:17:26.163Z,998.80
2022-08-26T06:18:26.161Z,998.73
2022-08-26T06:19:26.130Z,998.73
2022-08-26T06:20:27.124Z,998.80
2022-08-26T06:21:26.118Z,998.74
2022-08-26T06:22:26.101Z,998.78
2022-08-26T06:23:26.091Z,998.79
2022-08-26T06:24:27.157Z,998.81
2022-08-26T06:25:26.063Z,998.78
2022-08-26T06:26:26.051Z,998.76
2022-08-26T06:27:30.593Z,998.78
2022-08-26T06:28:27.048Z,998.79
2022-08-26T06:29:26.010Z,998.82
2022-08-26T06:30:26.050Z,998.82
2022-08-26T06:31:26.023Z,998.81
2022-08-26T06:32:25.974Z,998.80
2022-08-26T06:33:25.973Z,998.76
2022-08-26T06:34:26.728Z,998.82
2022-08-26T06:35:25.932Z,998.78
2022-08-26T06:36:25.923Z,998.80
2022-08-26T06:37:25.903Z,998.78
2022-08-26T06:38:25.914Z,998.79
2022-08-26T06:39:25.887Z,998.86
2022-08-26T06:40:26.017Z,998.81
2022-08-26T06:41:25.931Z,998.82
2022-08-26T06:42:25.869Z,998.84
2022-08-26T06:43:25.849Z,998.79
2022-08-26T06:44:25.832Z,998.81
2022-08-26T06:45:25.805Z,998.79
2022-08-26T06:46:25.926Z,998.77
2022-08-26T06:47:25.791Z,998.77
2022-08-26T06:48:25.791Z,998.78
2022-08-26T06:49:27.454Z,998.80
2022-08-26T06:50:25.735Z,998.77
2022-08-26T06:51:25.728Z,998.77
2022-08-26T06:52:25.717Z,998.71
2022-08-26T06:53:25.717Z,998.69
2022-08-26T06:54:25.699Z,998.66
2022-08-26T06:55:26.809Z,998.66
2022-08-26T06:56:25.660Z,998.69
2022-08-26T06:57:25.677Z,998.70
2022-08-26T06:58:25.647Z,998.72
2022-08-26T06:59:25.641Z,998.68
2022-08-26T07:00:25.637Z,998.68
2022-08-26T07:01:25.639Z,998.66
2022-08-26T07:02:28.441Z,998.67
2022-08-26T07:03:25.604Z,998.70
2022-08-26T07:04:27.793Z,998.64
2022-08-26T07:05:25.571Z,998.63
2022-08-26T07:06:25.530Z,998.65
2022-08-26T07:07:26.075Z,998.60
2022-08-26T07:08:25.524Z,998.65
2022-08-26T07:09:25.505Z,998.61
2022-08-26T07:10:25.490Z,998.66
2022-08-26T07:11:25.497Z,998.68
2022-08-26T07:12:25.462Z,998.66
2022-08-26T07:13:30.482Z,998.64
2022-08-26T07:14:26.501Z,998.68
2022-08-26T07:15:31.032Z,998.74
2022-08-26T07:16:26.424Z,998.71
2022-08-26T07:17:25.403Z,998.71
2022-08-26T07:18:25.408Z,998.73
2022-08-26T07:19:30.133Z,998.72
2022-08-26T07:20:26.354Z,998.70
2022-08-26T07:21:25.375Z,998.74
2022-08-26T07:22:25.381Z,998.72
2022-08-26T07:23:25.351Z,998.72
2022-08-26T07:24:28.417Z,998.73
2022-08-26T07:25:25.350Z,998.76
2022-08-26T07:26:25.286Z,998.75
2022-08-26T07:27:25.309Z,998.71
2022-08-26T07:28:25.284Z,998.69
2022-08-26T07:29:25.245Z,998.64
2022-08-26T07:30:25.246Z,998.63
2022-08-26T07:32:21.050Z,998.66
2022-08-26T07:33:21.042Z,998.69
2022-08-26T07:34:21.034Z,998.64
2022-08-26T07:35:21.053Z,998.64
2022-08-26T07:36:21.004Z,998.66
2022-08-26T07:37:21.015Z,998.64
2022-08-26T07:38:20.989Z,998.65
2022-08-26T07:39:20.983Z,998.66
2022-08-26T07:40:21.066Z,998.72
2022-08-26T07:41:20.976Z,998.70
2022-08-26T07:42:20.937Z,998.73
2022-08-26T07:43:20.938Z,998.69
2022-08-26T07:44:20.914Z,998.67
2022-08-26T07:45:20.913Z,998.68
2022-08-26T07:46:27.041Z,998.68
2022-08-26T07:47:24.860Z,998.66
2022-08-26T07:48:25.766Z,998.64
2022-08-26T07:49:20.971Z,998.64
2022-08-26T07:50:20.897Z,998.61
2022-08-26T07:51:21.827Z,998.60
2022-08-26T07:52:25.537Z,998.60
2022-08-26T07:53:21.829Z,998.60
2022-08-26T07:54:20.788Z,998.61
2022-08-26T07:55:21.799Z,998.58
2022-08-26T07:56:20.788Z,998.59
2022-08-26T07:57:20.769Z,998.62
2022-08-26T07:58:20.749Z,998.59
2022-08-26T07:59:20.748Z,998.60
2022-08-26T08:00:20.803Z,998.61
2022-08-26T08:01:20.800Z,998.63
2022-08-26T08:02:20.701Z,998.62
2022-08-26T08:03:20.706Z,998.61
2022-08-26T08:04:26.169Z,998.61
2022-08-26T08:05:21.851Z,998.60
2022-08-26T08:06:20.653Z,998.60
2022-08-26T08:07:20.646Z,998.55
2022-08-26T08:08:26.533Z,998.58
2022-08-26T08:09:22.422Z,998.57
2022-08-26T08:10:20.864Z,998.56
2022-08-26T08:11:20.600Z,998.58
2022-08-26T08:12:20.590Z,998.57
2022-08-26T08:13:20.581Z,998.61
2022-08-26T08:14:22.241Z,998.59
2022-08-26T08:15:20.634Z,998.58
2022-08-26T08:16:20.651Z,998.61
2022-08-26T08:17:20.530Z,998.59
2022-08-26T08:18:20.770Z,998.60
2022-08-26T08:19:20.517Z,998.60
2022-08-26T08:20:20.482Z,998.57
2022-08-26T08:21:22.010Z,998.63
2022-08-26T08:22:20.462Z,998.59
2022-08-26T08:23:20.505Z,998.58
2022-08-26T08:24:20.463Z,998.58
2022-08-26T08:25:20.433Z,998.52
2022-08-26T08:26:20.424Z,998.56
2022-08-26T08:27:23.666Z,998.52
2022-08-26T08:28:20.406Z,998.52
2022-08-26T08:29:20.387Z,998.49
2022-08-26T08:30:22.648Z,998.46
2022-08-26T08:31:38.529Z,998.44
2022-08-26T08:32:21.365Z,998.48
2022-08-26T08:33:20.345Z,998.43
2022-08-26T08:34:21.451Z,998.42
2022-08-26T08:35:20.325Z,998.42
2022-08-26T08:36:20.533Z,998.38
2022-08-26T08:37:20.305Z,998.37
2022-08-26T08:38:20.308Z,998.38
2022-08-26T08:39:20.291Z,998.33
2022-08-26T08:40:20.431Z,998.32
2022-08-26T08:41:20.257Z,998.32
2022-08-26T08:42:20.248Z,998.32
2022-08-26T08:43:20.231Z,998.31
2022-08-26T08:44:20.283Z,998.33
2022-08-26T08:45:20.209Z,998.33
2022-08-26T08:46:20.275Z,998.27
2022-08-26T08:47:20.745Z,998.31
2022-08-26T08:48:20.163Z,998.32
2022-08-26T08:49:20.168Z,998.25
2022-08-26T08:50:20.139Z,998.26
2022-08-26T08:51:20.147Z,998.22
2022-08-26T08:52:20.148Z,998.20
2022-08-26T08:53:20.122Z,998.25
2022-08-26T08:54:21.983Z,998.21
2022-08-26T08:55:20.092Z,998.24
2022-08-26T08:56:20.068Z,998.21
2022-08-26T08:57:20.090Z,998.22
2022-08-26T08:58:20.039Z,998.20
2022-08-26T08:59:20.047Z,998.15
2022-08-26T09:00:20.029Z,998.16
2022-08-26T09:01:21.074Z,998.14
2022-08-26T09:02:20.073Z,998.13
2022-08-26T09:03:19.990Z,998.13
2022-08-26T09:04:19.972Z,998.10
2022-08-26T09:05:19.988Z,998.10
2022-08-26T09:06:19.982Z,998.06
2022-08-26T09:07:19.972Z,998.10
2022-08-26T09:08:20.096Z,998.09
2022-08-26T09:09:19.924Z,998.09
2022-08-26T09:10:19.904Z,998.03
2022-08-26T09:11:19.905Z,998.06
2022-08-26T09:12:19.896Z,998.07
2022-08-26T09:13:25.293Z,998.05
2022-08-26T09:14:20.852Z,998.01
2022-08-26T09:15:19.853Z,998.06
2022-08-26T09:16:20.295Z,998.04
2022-08-26T09:17:19.863Z,998.06
2022-08-26T09:18:19.805Z,998.03
2022-08-26T09:19:19.846Z,998.03
2022-08-26T09:20:19.802Z,998.03
2022-08-26T09:21:19.794Z,998.03
2022-08-26T09:22:19.831Z,998.02
2022-08-26T09:23:19.759Z,998.04
2022-08-26T09:24:19.735Z,997.99
2022-08-26T09:25:19.736Z,997.98
2022-08-26T09:26:19.717Z,998.00
2022-08-26T09:27:19.746Z,998.01
2022-08-26T09:28:19.694Z,997.98
2022-08-26T09:30:19.667Z,997.94
2022-08-26T09:31:19.730Z,997.95
2022-08-26T09:32:20.289Z,997.93
2022-08-26T09:33:19.656Z,997.92
2022-08-26T09:34:19.649Z,997.93
2022-08-26T09:35:19.614Z,997.90
2022-08-26T09:36:19.597Z,997.90
2022-08-26T09:37:19.587Z,997.89
2022-08-26T09:38:19.587Z,997.86
2022-08-26T09:39:19.555Z,997.88
2022-08-26T09:40:20.354Z,997.86
2022-08-26T09:41:19.538Z,997.88
2022-08-26T09:42:19.555Z,997.86
2022-08-26T09:43:22.771Z,997.90
2022-08-26T09:44:19.500Z,997.86
2022-08-26T09:45:19.501Z,997.89
2022-08-26T09:46:19.561Z,997.83
2022-08-26T09:47:19.478Z,997.86
2022-08-26T09:48:19.480Z,997.83
2022-08-26T09:49:19.440Z,997.87
2022-08-26T09:50:19.441Z,997.83
2022-08-26T09:51:19.452Z,997.82
2022-08-26T09:52:19.423Z,997.86
2022-08-26T09:53:20.968Z,997.79
2022-08-26T09:54:20.720Z,997.79
2022-08-26T09:55:19.379Z,997.79
2022-08-26T09:56:19.381Z,997.77
2022-08-26T09:57:19.361Z,997.73
2022-08-26T09:58:19.362Z,997.78
2022-08-26T09:59:19.313Z,997.78
2022-08-26T10:00:19.321Z,997.71
2022-08-26T10:01:19.593Z,997.66
2022-08-26T10:02:19.296Z,997.66
2022-08-26T10:03:19.269Z,997.64
2022-08-26T10:04:19.324Z,997.61
2022-08-26T10:05:19.276Z,997.59
2022-08-26T10:06:21.141Z,997.64
2022-08-26T10:07:19.264Z,997.59
2022-08-26T10:08:19.263Z,997.63
2022-08-26T10:09:19.214Z,997.57
2022-08-26T10:10:19.197Z,997.55
2022-08-26T10:11:19.185Z,997.54
2022-08-26T10:12:19.172Z,997.48
2022-08-26T10:13:19.147Z,997.46
2022-08-26T10:14:19.150Z,997.42
2022-08-26T10:15:19.159Z,997.41
2022-08-26T10:16:19.181Z,997.34
2022-08-26T10:17:19.118Z,997.36
2022-08-26T10:18:19.101Z,997.33
2022-08-26T10:19:41.674Z,997.32
2022-08-26T10:20:23.590Z,997.36
2022-08-26T10:21:19.048Z,997.31
2022-08-26T10:22:19.062Z,997.29
2022-08-26T10:23:19.032Z,997.31
2022-08-26T10:24:19.020Z,997.27
2022-08-26T10:25:19.015Z,997.22
2022-08-26T10:26:19.020Z,997.24
2022-08-26T10:27:19.002Z,997.28
2022-08-26T10:28:18.972Z,997.24
2022-08-26T10:29:18.950Z,997.21
2022-08-26T10:30:18.970Z,997.21
2022-08-26T10:31:18.947Z,997.18
2022-08-26T10:32:19.002Z,997.18
2022-08-26T10:33:18.907Z,997.16
2022-08-26T10:34:18.904Z,997.15
2022-08-26T10:35:18.903Z,997.15
2022-08-26T10:36:20.391Z,997.08
2022-08-26T10:37:18.889Z,997.04
2022-08-26T10:38:18.864Z,997.03
2022-08-26T10:39:18.835Z,997.03
2022-08-26T10:40:18.909Z,996.98
2022-08-26T10:41:18.804Z,996.97
2022-08-26T10:42:18.835Z,996.93
2022-08-26T10:43:18.839Z,996.88
2022-08-26T10:44:18.778Z,996.87
2022-08-26T10:45:18.764Z,996.83
2022-08-26T10:46:18.808Z,996.81
2022-08-26T10:47:18.756Z,996.81
2022-08-26T10:48:18.728Z,996.75
2022-08-26T10:49:18.728Z,996.71
2022-08-26T10:50:18.941Z,996.72
2022-08-26T10:51:18.705Z,996.70
2022-08-26T10:52:18.702Z,996.66
2022-08-26T10:53:18.683Z,996.71
2022-08-26T10:54:19.676Z,996.69
2022-08-26T10:55:18.650Z,996.64
2022-08-26T10:56:19.387Z,996.60
2022-08-26T10:57:18.626Z,996.57
2022-08-26T10:58:26.317Z,996.58
2022-08-26T10:59:19.593Z,996.51
2022-08-26T11:00:18.586Z,996.53
2022-08-26T11:01:22.823Z,996.49
2022-08-26T11:02:22.794Z,996.45
2022-08-26T11:03:22.381Z,996.44
2022-08-26T11:04:18.621Z,996.50
2022-08-26T11:05:18.533Z,996.49
2022-08-26T11:06:18.542Z,996.47
2022-08-26T11:07:18.490Z,996.46
2022-08-26T11:08:18.491Z,996.47
2022-08-26T11:09:18.476Z,996.44
2022-08-26T11:10:19.481Z,996.41
2022-08-26T11:11:18.453Z,996.42
2022-08-26T11:12:18.454Z,996.39
2022-08-26T11:13:18.428Z,996.35
2022-08-26T11:14:18.414Z,996.34
2022-08-26T11:15:19.402Z,996.33
2022-08-26T11:16:19.457Z,996.29
2022-08-26T11:17:18.377Z,996.32
2022-08-26T11:18:18.371Z,996.33
2022-08-26T11:19:18.372Z,996.31
2022-08-26T11:20:19.352Z,996.28
2022-08-26T11:21:18.358Z,996.28
2022-08-26T11:22:19.320Z,996.28
2022-08-26T11:23:18.313Z,996.27
2022-08-26T11:24:18.340Z,996.29
2022-08-26T11:25:18.468Z,996.26
2022-08-26T11:26:35.562Z,996.30
2022-08-26T11:27:19.257Z,996.26
2022-08-26T11:28:18.257Z,996.25
2022-08-26T11:29:18.227Z,996.25
2022-08-26T11:30:18.503Z,996.25
2022-08-26T11:31:18.252Z,996.25
2022-08-26T11:32:18.209Z,996.26
2022-08-26T11:33:18.207Z,996.26
2022-08-26T11:34:18.186Z,996.26
2022-08-26T11:35:18.156Z,996.31
2022-08-26T11:36:18.156Z,996.32
2022-08-26T11:37:18.150Z,996.33
2022-08-26T11:38:18.136Z,996.32
2022-08-26T11:39:18.115Z,996.36
2022-08-26T11:40:18.139Z,996.31
2022-08-26T11:41:18.116Z,996.28
2022-08-26T11:42:20.155Z,996.29
2022-08-26T11:43:18.080Z,996.30
2022-08-26T11:44:18.108Z,996.27
2022-08-26T11:45:18.135Z,996.24
2022-08-26T11:46:18.085Z,996.28
2022-08-26T11:47:18.018Z,996.22
2022-08-26T11:48:18.009Z,996.22
2022-08-26T11:49:17.999Z,996.21
2022-08-26T11:50:17.992Z,996.22
2022-08-26T11:51:17.959Z,996.27
2022-08-26T11:52:17.973Z,996.32
2022-08-26T11:53:17.961Z,996.29
2022-08-26T11:54:17.954Z,996.28
2022-08-26T11:55:19.211Z,996.33
2022-08-26T11:56:17.956Z,996.35
2022-08-26T11:57:17.900Z,996.34
2022-08-26T11:58:17.953Z,996.41
2022-08-26T11:59:17.909Z,996.39
2022-08-26T12:00:20.946Z,996.42
2022-08-26T12:01:17.867Z,996.42
2022-08-26T12:02:18.167Z,996.49
2022-08-26T12:03:17.870Z,996.50
2022-08-26T12:04:17.909Z,996.48
2022-08-26T12:05:17.790Z,996.47
2022-08-26T12:06:17.845Z,996.47
2022-08-26T12:07:23.733Z,996.48
2022-08-26T12:08:18.790Z,996.44
2022-08-26T12:09:17.755Z,996.45
2022-08-26T12:10:17.758Z,996.50
2022-08-26T12:11:17.724Z,996.55
2022-08-26T12:12:17.712Z,996.59
2022-08-26T12:13:17.694Z,996.59
2022-08-26T12:14:17.735Z,996.64
2022-08-26T12:15:17.677Z,996.62
2022-08-26T12:16:17.720Z,996.68
2022-08-26T12:17:17.669Z,996.74
2022-08-26T12:18:17.672Z,996.63
2022-08-26T12:19:17.644Z,996.68
2022-08-26T12:20:17.617Z,996.68
2022-08-26T12:21:17.599Z,996.68
2022-08-26T12:22:17.596Z,996.65
2022-08-26T12:23:17.588Z,996.62
2022-08-26T12:24:17.571Z,996.60
2022-08-26T12:25:17.572Z,996.57
2022-08-26T12:26:17.572Z,996.56
2022-08-26T12:27:17.520Z,996.54
2022-08-26T12:28:17.603Z,996.56
2022-08-26T12:29:19.998Z,996.56
2022-08-26T12:30:19.371Z,996.50